Aérodrome :
LOGIN :

S'inscrire | Disclaimer

   EN    FR    IT 

 










Légende :    VFR   VFR Marginal   IFR   IFR Intensif   IFR Très Intensif
Visi : 
Plafond : 
>= 8 km
>= 3000ft
5 à 8 km
1000 à 3000 ft
1500m à 5 km
500 à 1000 ft
800 à 1500m
200 à 500 ft
< 800m
< 200 ft
Symboles :   Orages  Brouillard  Fortes neiges  Fortes précipitations  Vent > 20 kt
SIGMETs :   Divers  Orages  Givrage  Turbulence  Onde Orograph.  Cendres Volcan.






- Altitude de l'aérodrome : 408 ft
- Code IATA : FKB


EDSB - Karlsruhe Baden Baden

DERNIER METAR :
  • 140020Z AUTO 05005KT 9999 FEW230/// 00/00 Q1003

METARs EXPIRÉS :
  • 132350Z AUTO 08003KT 9000 FEW180/// 00/M00 Q1004
  • 132320Z AUTO 00000KT 9000 FEW026/// SCT190/// 02/01 Q1004
  • 132250Z AUTO 21005KT 9999 FEW022/// 03/02 Q1004
  • 132220Z AUTO 19004KT 9999 NCD 03/02 Q1005
  • 132150Z AUTO 23004KT 9999 FEW023/// SCT069/// 04/02 Q1005

TAF TAF EDSB
Valide du 13 à 18h jusqu'au 14 à 18h UTC


131700Z 1318/1418 20006KT 9999 BKN040
BECMG 1401/1404 03004KT
PROB30
TEMPO 1401/1408 3000 BCFG



MET'MAP, la Météo Aéronautique d'un coup d'oeil ! - Copyright ORBIFLY Décembre 2007 - Disclaimer

ORBIFLY MET'MAP TEAM :

Programmation & Développement : Alexandra Zaïnal
Conception & Développement : Baudouin d'Aumeries
Co-Programmation & Développement : Marc-Olivier Méhu
Soutien technique & logistique : Manuel Goepfert

Contact : metmap@orbifly.com




SOURCES & CREDITS :

   NOAA